sensor_id;sensor_type;location;lat;lon;timestamp;temperature;humidity
61591;DHT22;71994;52.410;-1.966;2023-11-19T00:00:21;16.60;58.00
61591;DHT22;71994;52.410;-1.966;2023-11-19T00:03:30;16.60;58.10
61591;DHT22;71994;52.410;-1.966;2023-11-19T00:06:38;16.60;58.00
61591;DHT22;71994;52.410;-1.966;2023-11-19T00:09:44;16.60;58.10
61591;DHT22;71994;52.410;-1.966;2023-11-19T00:12:50;16.60;58.00
61591;DHT22;71994;52.410;-1.966;2023-11-19T00:15:59;16.60;58.10
61591;DHT22;71994;52.410;-1.966;2023-11-19T00:19:21;16.60;57.90
61591;DHT22;71994;52.410;-1.966;2023-11-19T00:22:29;16.60;58.00
61591;DHT22;71994;52.410;-1.966;2023-11-19T00:25:35;16.50;58.00
61591;DHT22;71994;52.410;-1.966;2023-11-19T00:28:42;16.60;58.00
61591;DHT22;71994;52.410;-1.966;2023-11-19T00:31:48;16.60;57.90
61591;DHT22;71994;52.410;-1.966;2023-11-19T00:34:57;16.60;57.90
61591;DHT22;71994;52.410;-1.966;2023-11-19T00:38:08;16.50;57.90
61591;DHT22;71994;52.410;-1.966;2023-11-19T00:41:15;16.50;58.00
61591;DHT22;71994;52.410;-1.966;2023-11-19T00:44:22;16.50;58.00
61591;DHT22;71994;52.410;-1.966;2023-11-19T00:47:28;16.50;58.00
61591;DHT22;71994;52.410;-1.966;2023-11-19T00:50:38;16.50;58.10
61591;DHT22;71994;52.410;-1.966;2023-11-19T00:53:47;16.40;58.10
61591;DHT22;71994;52.410;-1.966;2023-11-19T00:56:53;16.40;58.10
61591;DHT22;71994;52.410;-1.966;2023-11-19T01:00:02;16.40;58.10
61591;DHT22;71994;52.410;-1.966;2023-11-19T01:03:12;16.40;58.20
61591;DHT22;71994;52.410;-1.966;2023-11-19T01:06:30;16.40;58.10
61591;DHT22;71994;52.410;-1.966;2023-11-19T01:09:36;16.40;58.20
61591;DHT22;71994;52.410;-1.966;2023-11-19T01:12:42;16.30;58.20
61591;DHT22;71994;52.410;-1.966;2023-11-19T01:15:49;16.30;58.30
61591;DHT22;71994;52.410;-1.966;2023-11-19T01:18:55;16.30;58.30
61591;DHT22;71994;52.410;-1.966;2023-11-19T01:22:04;16.30;58.30
61591;DHT22;71994;52.410;-1.966;2023-11-19T01:25:11;16.30;58.30
61591;DHT22;71994;52.410;-1.966;2023-11-19T01:28:17;16.30;58.30
61591;DHT22;71994;52.410;-1.966;2023-11-19T01:31:23;16.30;58.30
61591;DHT22;71994;52.410;-1.966;2023-11-19T01:34:29;16.30;58.30
61591;DHT22;71994;52.410;-1.966;2023-11-19T01:37:43;16.30;58.40
61591;DHT22;71994;52.410;-1.966;2023-11-19T01:40:49;16.30;58.40
61591;DHT22;71994;52.410;-1.966;2023-11-19T01:43:55;16.20;58.50
61591;DHT22;71994;52.410;-1.966;2023-11-19T01:47:02;16.20;58.50
61591;DHT22;71994;52.410;-1.966;2023-11-19T01:50:09;16.20;58.50
61591;DHT22;71994;52.410;-1.966;2023-11-19T01:53:18;16.20;58.50
61591;DHT22;71994;52.410;-1.966;2023-11-19T01:56:26;16.20;58.50
61591;DHT22;71994;52.410;-1.966;2023-11-19T01:59:34;16.20;58.50
61591;DHT22;71994;52.410;-1.966;2023-11-19T02:02:44;16.20;58.50
61591;DHT22;71994;52.410;-1.966;2023-11-19T02:05:51;16.10;58.50
61591;DHT22;71994;52.410;-1.966;2023-11-19T02:09:10;16.20;58.50
61591;DHT22;71994;52.410;-1.966;2023-11-19T02:12:16;16.20;58.40
61591;DHT22;71994;52.410;-1.966;2023-11-19T02:15:28;16.20;58.30
61591;DHT22;71994;52.410;-1.966;2023-11-19T02:18:37;16.20;58.30
61591;DHT22;71994;52.410;-1.966;2023-11-19T02:21:44;16.10;58.40
61591;DHT22;71994;52.410;-1.966;2023-11-19T02:24:59;16.10;58.50
61591;DHT22;71994;52.410;-1.966;2023-11-19T02:28:10;16.10;58.50
61591;DHT22;71994;52.410;-1.966;2023-11-19T02:31:21;16.10;58.50
61591;DHT22;71994;52.410;-1.966;2023-11-19T02:34:31;16.10;58.40
61591;DHT22;71994;52.410;-1.966;2023-11-19T02:37:38;16.10;58.40
61591;DHT22;71994;52.410;-1.966;2023-11-19T02:40:47;16.10;58.40
61591;DHT22;71994;52.410;-1.966;2023-11-19T02:43:58;16.10;58.30
61591;DHT22;71994;52.410;-1.966;2023-11-19T02:47:05;16.10;58.30
61591;DHT22;71994;52.410;-1.966;2023-11-19T02:50:17;16.10;58.40
61591;DHT22;71994;52.410;-1.966;2023-11-19T02:53:28;16.10;58.30
61591;DHT22;71994;52.410;-1.966;2023-11-19T02:56:35;16.10;58.30
61591;DHT22;71994;52.410;-1.966;2023-11-19T02:59:45;16.10;58.30
61591;DHT22;71994;52.410;-1.966;2023-11-19T03:02:52;16.10;58.30
61591;DHT22;71994;52.410;-1.966;2023-11-19T03:06:02;16.10;58.40
61591;DHT22;71994;52.410;-1.966;2023-11-19T03:09:09;16.10;58.30
61591;DHT22;71994;52.410;-1.966;2023-11-19T03:12:15;16.10;58.40
61591;DHT22;71994;52.410;-1.966;2023-11-19T03:15:50;16.10;58.50
61591;DHT22;71994;52.410;-1.966;2023-11-19T03:19:07;16.10;58.50
61591;DHT22;71994;52.410;-1.966;2023-11-19T03:22:29;16.10;58.50
61591;DHT22;71994;52.410;-1.966;2023-11-19T03:25:40;16.10;58.40
61591;DHT22;71994;52.410;-1.966;2023-11-19T03:28:51;16.10;58.40
61591;DHT22;71994;52.410;-1.966;2023-11-19T03:32:00;16.10;58.40
61591;DHT22;71994;52.410;-1.966;2023-11-19T03:35:08;16.10;58.40
61591;DHT22;71994;52.410;-1.966;2023-11-19T03:38:25;16.10;58.30
61591;DHT22;71994;52.410;-1.966;2023-11-19T03:41:49;16.10;58.30
61591;DHT22;71994;52.410;-1.966;2023-11-19T03:45:06;16.10;58.20
61591;DHT22;71994;52.410;-1.966;2023-11-19T03:48:21;16.10;58.20
61591;DHT22;71994;52.410;-1.966;2023-11-19T03:51:46;16.10;58.20
61591;DHT22;71994;52.410;-1.966;2023-11-19T03:54:59;16.10;58.30
61591;DHT22;71994;52.410;-1.966;2023-11-19T03:58:06;16.10;58.30
61591;DHT22;71994;52.410;-1.966;2023-11-19T04:01:12;16.10;58.20
61591;DHT22;71994;52.410;-1.966;2023-11-19T04:04:22;16.10;58.20
61591;DHT22;71994;52.410;-1.966;2023-11-19T04:07:28;16.10;58.30
61591;DHT22;71994;52.410;-1.966;2023-11-19T04:10:39;16.10;58.30
61591;DHT22;71994;52.410;-1.966;2023-11-19T04:13:45;16.10;58.20
61591;DHT22;71994;52.410;-1.966;2023-11-19T04:16:51;16.10;58.10
61591;DHT22;71994;52.410;-1.966;2023-11-19T04:20:00;16.00;58.20
61591;DHT22;71994;52.410;-1.966;2023-11-19T04:23:07;16.10;58.20
61591;DHT22;71994;52.410;-1.966;2023-11-19T04:26:16;16.10;58.20
61591;DHT22;71994;52.410;-1.966;2023-11-19T04:29:23;16.00;58.30
61591;DHT22;71994;52.410;-1.966;2023-11-19T04:32:29;16.00;58.40
61591;DHT22;71994;52.410;-1.966;2023-11-19T04:35:38;16.00;58.40
61591;DHT22;71994;52.410;-1.966;2023-11-19T04:38:45;16.00;58.40
61591;DHT22;71994;52.410;-1.966;2023-11-19T04:41:51;15.90;58.50
61591;DHT22;71994;52.410;-1.966;2023-11-19T04:44:58;15.90;58.50
61591;DHT22;71994;52.410;-1.966;2023-11-19T04:48:04;16.00;58.40
61591;DHT22;71994;52.410;-1.966;2023-11-19T04:51:14;16.00;58.30
61591;DHT22;71994;52.410;-1.966;2023-11-19T04:54:21;16.00;58.10
61591;DHT22;71994;52.410;-1.966;2023-11-19T04:57:27;16.00;58.20
61591;DHT22;71994;52.410;-1.966;2023-11-19T05:00:35;16.00;58.20
61591;DHT22;71994;52.410;-1.966;2023-11-19T05:03:44;16.00;58.20
61591;DHT22;71994;52.410;-1.966;2023-11-19T05:06:54;16.00;58.30
61591;DHT22;71994;52.410;-1.966;2023-11-19T05:10:00;16.00;58.20
61591;DHT22;71994;52.410;-1.966;2023-11-19T05:13:07;16.00;58.20
61591;DHT22;71994;52.410;-1.966;2023-11-19T05:16:13;16.00;58.20
61591;DHT22;71994;52.410;-1.966;2023-11-19T05:19:20;16.00;58.20
61591;DHT22;71994;52.410;-1.966;2023-11-19T05:22:29;16.00;58.20
61591;DHT22;71994;52.410;-1.966;2023-11-19T05:25:38;15.90;58.20
61591;DHT22;71994;52.410;-1.966;2023-11-19T05:28:45;16.00;58.30
61591;DHT22;71994;52.410;-1.966;2023-11-19T05:31:57;16.00;58.20
61591;DHT22;71994;52.410;-1.966;2023-11-19T05:35:07;15.90;58.20
61591;DHT22;71994;52.410;-1.966;2023-11-19T05:38:17;15.90;58.20
61591;DHT22;71994;52.410;-1.966;2023-11-19T05:41:24;15.90;58.30
61591;DHT22;71994;52.410;-1.966;2023-11-19T05:44:30;15.90;58.20
61591;DHT22;71994;52.410;-1.966;2023-11-19T05:47:36;15.90;58.20
61591;DHT22;71994;52.410;-1.966;2023-11-19T05:50:42;15.90;58.20
61591;DHT22;71994;52.410;-1.966;2023-11-19T05:53:52;15.90;58.10
61591;DHT22;71994;52.410;-1.966;2023-11-19T05:56:58;15.90;58.20
61591;DHT22;71994;52.410;-1.966;2023-11-19T06:00:09;15.90;58.20
61591;DHT22;71994;52.410;-1.966;2023-11-19T06:03:18;15.80;58.10
61591;DHT22;71994;52.410;-1.966;2023-11-19T06:06:24;15.90;58.10
61591;DHT22;71994;52.410;-1.966;2023-11-19T06:09:33;15.90;58.00
61591;DHT22;71994;52.410;-1.966;2023-11-19T06:12:40;15.90;58.20
61591;DHT22;71994;52.410;-1.966;2023-11-19T06:15:46;15.90;58.30
61591;DHT22;71994;52.410;-1.966;2023-11-19T06:18:59;16.00;58.20
61591;DHT22;71994;52.410;-1.966;2023-11-19T06:22:05;16.10;58.10
61591;DHT22;71994;52.410;-1.966;2023-11-19T06:25:14;16.00;58.10
61591;DHT22;71994;52.410;-1.966;2023-11-19T06:28:24;16.10;58.10
61591;DHT22;71994;52.410;-1.966;2023-11-19T06:31:30;16.10;58.10
61591;DHT22;71994;52.410;-1.966;2023-11-19T06:34:38;16.10;58.00
61591;DHT22;71994;52.410;-1.966;2023-11-19T06:37:44;16.10;57.90
61591;DHT22;71994;52.410;-1.966;2023-11-19T06:40:53;16.10;57.90
61591;DHT22;71994;52.410;-1.966;2023-11-19T06:44:03;16.10;57.70
61591;DHT22;71994;52.410;-1.966;2023-11-19T06:47:09;16.10;57.60
61591;DHT22;71994;52.410;-1.966;2023-11-19T06:50:15;16.10;57.70
61591;DHT22;71994;52.410;-1.966;2023-11-19T06:53:22;16.10;57.60
61591;DHT22;71994;52.410;-1.966;2023-11-19T06:56:31;16.10;57.60
61591;DHT22;71994;52.410;-1.966;2023-11-19T06:59:37;16.10;57.60
61591;DHT22;71994;52.410;-1.966;2023-11-19T07:02:43;16.10;57.60
61591;DHT22;71994;52.410;-1.966;2023-11-19T07:05:50;16.10;57.60
61591;DHT22;71994;52.410;-1.966;2023-11-19T07:08:57;16.10;57.50
61591;DHT22;71994;52.410;-1.966;2023-11-19T07:12:09;16.10;57.50
61591;DHT22;71994;52.410;-1.966;2023-11-19T07:15:16;16.10;57.50
61591;DHT22;71994;52.410;-1.966;2023-11-19T07:18:23;16.10;57.50
61591;DHT22;71994;52.410;-1.966;2023-11-19T07:21:29;16.10;57.50
61591;DHT22;71994;52.410;-1.966;2023-11-19T07:24:36;16.10;57.50
61591;DHT22;71994;52.410;-1.966;2023-11-19T07:27:47;16.10;57.50
61591;DHT22;71994;52.410;-1.966;2023-11-19T07:30:53;16.10;57.60
61591;DHT22;71994;52.410;-1.966;2023-11-19T07:33:59;16.00;57.60
61591;DHT22;71994;52.410;-1.966;2023-11-19T07:37:12;16.10;57.60
61591;DHT22;71994;52.410;-1.966;2023-11-19T07:40:24;16.00;57.60
61591;DHT22;71994;52.410;-1.966;2023-11-19T07:43:33;16.00;57.60
61591;DHT22;71994;52.410;-1.966;2023-11-19T07:46:42;16.10;57.70
61591;DHT22;71994;52.410;-1.966;2023-11-19T07:49:50;16.00;57.60
61591;DHT22;71994;52.410;-1.966;2023-11-19T07:52:56;16.00;57.70
61591;DHT22;71994;52.410;-1.966;2023-11-19T07:56:04;16.00;57.80
61591;DHT22;71994;52.410;-1.966;2023-11-19T07:59:13;16.00;58.00
61591;DHT22;71994;52.410;-1.966;2023-11-19T08:02:19;16.00;58.00
61591;DHT22;71994;52.410;-1.966;2023-11-19T08:05:26;16.10;58.00
61591;DHT22;71994;52.410;-1.966;2023-11-19T08:08:32;16.10;58.00
61591;DHT22;71994;52.410;-1.966;2023-11-19T08:11:41;16.30;57.80
61591;DHT22;71994;52.410;-1.966;2023-11-19T08:14:50;16.50;57.70
61591;DHT22;71994;52.410;-1.966;2023-11-19T08:18:11;16.60;57.30
61591;DHT22;71994;52.410;-1.966;2023-11-19T08:21:20;16.80;57.10
61591;DHT22;71994;52.410;-1.966;2023-11-19T08:24:27;17.00;56.70
61591;DHT22;71994;52.410;-1.966;2023-11-19T08:27:35;17.20;56.40
61591;DHT22;71994;52.410;-1.966;2023-11-19T08:30:45;17.30;56.10
61591;DHT22;71994;52.410;-1.966;2023-11-19T08:33:51;17.40;55.90
61591;DHT22;71994;52.410;-1.966;2023-11-19T08:36:57;17.60;55.70
61591;DHT22;71994;52.410;-1.966;2023-11-19T08:40:04;17.60;55.50
61591;DHT22;71994;52.410;-1.966;2023-11-19T08:43:16;17.70;55.30
61591;DHT22;71994;52.410;-1.966;2023-11-19T08:46:26;17.80;55.10
61591;DHT22;71994;52.410;-1.966;2023-11-19T08:49:36;17.80;55.00
61591;DHT22;71994;52.410;-1.966;2023-11-19T08:52:42;17.80;55.00
61591;DHT22;71994;52.410;-1.966;2023-11-19T08:55:53;17.80;55.00
61591;DHT22;71994;52.410;-1.966;2023-11-19T08:59:00;17.80;55.00
61591;DHT22;71994;52.410;-1.966;2023-11-19T09:02:16;17.80;55.00
61591;DHT22;71994;52.410;-1.966;2023-11-19T09:05:25;17.80;55.00
61591;DHT22;71994;52.410;-1.966;2023-11-19T09:08:32;17.70;55.10
61591;DHT22;71994;52.410;-1.966;2023-11-19T09:11:38;17.70;55.20
61591;DHT22;71994;52.410;-1.966;2023-11-19T09:14:45;17.70;55.30
61591;DHT22;71994;52.410;-1.966;2023-11-19T09:17:55;17.60;55.30
61591;DHT22;71994;52.410;-1.966;2023-11-19T09:21:03;17.60;55.40
61591;DHT22;71994;52.410;-1.966;2023-11-19T09:24:10;17.60;55.50
61591;DHT22;71994;52.410;-1.966;2023-11-19T09:27:16;17.60;55.60
61591;DHT22;71994;52.410;-1.966;2023-11-19T09:30:26;17.50;55.70
61591;DHT22;71994;52.410;-1.966;2023-11-19T09:33:39;17.50;55.80
61591;DHT22;71994;52.410;-1.966;2023-11-19T09:36:45;17.40;56.00
61591;DHT22;71994;52.410;-1.966;2023-11-19T09:39:52;17.30;56.10
61591;DHT22;71994;52.410;-1.966;2023-11-19T09:42:58;17.30;56.10
61591;DHT22;71994;52.410;-1.966;2023-11-19T09:46:08;17.20;56.20
61591;DHT22;71994;52.410;-1.966;2023-11-19T09:49:21;17.20;56.20
61591;DHT22;71994;52.410;-1.966;2023-11-19T09:52:29;17.20;56.30
61591;DHT22;71994;52.410;-1.966;2023-11-19T09:55:35;17.10;56.40
61591;DHT22;71994;52.410;-1.966;2023-11-19T09:58:41;17.10;56.40
61591;DHT22;71994;52.410;-1.966;2023-11-19T10:01:50;17.10;56.60
61591;DHT22;71994;52.410;-1.966;2023-11-19T10:04:59;17.10;56.60
61591;DHT22;71994;52.410;-1.966;2023-11-19T10:08:08;17.10;56.70
61591;DHT22;71994;52.410;-1.966;2023-11-19T10:11:18;17.00;56.70
61591;DHT22;71994;52.410;-1.966;2023-11-19T10:14:24;17.00;56.80
61591;DHT22;71994;52.410;-1.966;2023-11-19T10:17:33;16.90;56.90
61591;DHT22;71994;52.410;-1.966;2023-11-19T10:20:42;16.90;56.90
61591;DHT22;71994;52.410;-1.966;2023-11-19T10:23:50;16.90;57.00
61591;DHT22;71994;52.410;-1.966;2023-11-19T10:26:57;16.90;57.10
61591;DHT22;71994;52.410;-1.966;2023-11-19T10:30:06;16.80;57.10
61591;DHT22;71994;52.410;-1.966;2023-11-19T10:33:14;16.80;57.20
61591;DHT22;71994;52.410;-1.966;2023-11-19T10:36:37;16.80;57.20
61591;DHT22;71994;52.410;-1.966;2023-11-19T10:39:52;16.80;57.30
61591;DHT22;71994;52.410;-1.966;2023-11-19T10:43:02;16.80;57.30
61591;DHT22;71994;52.410;-1.966;2023-11-19T10:46:11;16.80;57.30
61591;DHT22;71994;52.410;-1.966;2023-11-19T10:49:17;16.70;57.40
61591;DHT22;71994;52.410;-1.966;2023-11-19T10:52:30;16.70;57.40
61591;DHT22;71994;52.410;-1.966;2023-11-19T10:55:40;16.70;57.40
61591;DHT22;71994;52.410;-1.966;2023-11-19T10:58:48;16.70;57.50
61591;DHT22;71994;52.410;-1.966;2023-11-19T11:01:58;16.60;57.50
61591;DHT22;71994;52.410;-1.966;2023-11-19T11:05:07;16.60;57.60
61591;DHT22;71994;52.410;-1.966;2023-11-19T11:08:18;16.60;57.70
61591;DHT22;71994;52.410;-1.966;2023-11-19T11:11:24;16.60;57.70
61591;DHT22;71994;52.410;-1.966;2023-11-19T11:14:32;16.60;57.70
61591;DHT22;71994;52.410;-1.966;2023-11-19T11:17:41;16.60;57.70
61591;DHT22;71994;52.410;-1.966;2023-11-19T11:20:47;16.60;57.60
61591;DHT22;71994;52.410;-1.966;2023-11-19T11:28:08;16.60;57.70
61591;DHT22;71994;52.410;-1.966;2023-11-19T11:31:27;16.60;57.80
61591;DHT22;71994;52.410;-1.966;2023-11-19T11:34:58;16.70;57.80
61591;DHT22;71994;52.410;-1.966;2023-11-19T11:38:08;16.70;57.70
61591;DHT22;71994;52.410;-1.966;2023-11-19T11:41:22;16.80;57.60
61591;DHT22;71994;52.410;-1.966;2023-11-19T11:45:01;16.80;57.50
61591;DHT22;71994;52.410;-1.966;2023-11-19T11:48:19;16.90;57.40
61591;DHT22;71994;52.410;-1.966;2023-11-19T11:51:57;17.00;57.30
61591;DHT22;71994;52.410;-1.966;2023-11-19T11:55:04;17.10;57.30
61591;DHT22;71994;52.410;-1.966;2023-11-19T11:58:17;17.10;57.10
61591;DHT22;71994;52.410;-1.966;2023-11-19T12:01:25;17.20;56.90
61591;DHT22;71994;52.410;-1.966;2023-11-19T12:04:34;17.30;56.80
61591;DHT22;71994;52.410;-1.966;2023-11-19T12:07:41;17.40;56.70
61591;DHT22;71994;52.410;-1.966;2023-11-19T12:10:49;17.40;56.70
61591;DHT22;71994;52.410;-1.966;2023-11-19T12:13:58;17.40;56.60
61591;DHT22;71994;52.410;-1.966;2023-11-19T12:17:37;17.40;56.60
61591;DHT22;71994;52.410;-1.966;2023-11-19T12:20:49;17.40;56.60
61591;DHT22;71994;52.410;-1.966;2023-11-19T12:23:58;17.40;56.60
61591;DHT22;71994;52.410;-1.966;2023-11-19T12:27:11;17.40;56.70
61591;DHT22;71994;52.410;-1.966;2023-11-19T12:30:27;17.40;56.70
61591;DHT22;71994;52.410;-1.966;2023-11-19T12:33:35;17.40;56.70
61591;DHT22;71994;52.410;-1.966;2023-11-19T12:36:42;17.40;56.80
61591;DHT22;71994;52.410;-1.966;2023-11-19T12:39:48;17.30;56.80
61591;DHT22;71994;52.410;-1.966;2023-11-19T12:42:55;17.30;56.90
61591;DHT22;71994;52.410;-1.966;2023-11-19T12:46:17;17.30;56.90
61591;DHT22;71994;52.410;-1.966;2023-11-19T12:49:24;17.30;57.00
61591;DHT22;71994;52.410;-1.966;2023-11-19T12:52:30;17.20;57.10
61591;DHT22;71994;52.410;-1.966;2023-11-19T12:55:39;17.20;57.20
61591;DHT22;71994;52.410;-1.966;2023-11-19T12:58:45;17.10;57.20
61591;DHT22;71994;52.410;-1.966;2023-11-19T13:01:58;17.10;57.30
61591;DHT22;71994;52.410;-1.966;2023-11-19T13:05:24;17.10;57.30
61591;DHT22;71994;52.410;-1.966;2023-11-19T13:08:37;17.10;57.30
61591;DHT22;71994;52.410;-1.966;2023-11-19T13:11:44;17.10;57.40
61591;DHT22;71994;52.410;-1.966;2023-11-19T13:14:50;17.10;57.50
61591;DHT22;71994;52.410;-1.966;2023-11-19T13:18:02;17.10;57.40
61591;DHT22;71994;52.410;-1.966;2023-11-19T13:21:11;17.00;57.50
61591;DHT22;71994;52.410;-1.966;2023-11-19T13:24:17;17.00;57.50
61591;DHT22;71994;52.410;-1.966;2023-11-19T13:27:28;17.00;57.50
61591;DHT22;71994;52.410;-1.966;2023-11-19T13:30:34;17.00;57.60
61591;DHT22;71994;52.410;-1.966;2023-11-19T13:33:43;17.00;57.60
61591;DHT22;71994;52.410;-1.966;2023-11-19T13:36:50;16.90;57.70
61591;DHT22;71994;52.410;-1.966;2023-11-19T13:39:56;16.90;57.80
61591;DHT22;71994;52.410;-1.966;2023-11-19T13:43:02;16.90;57.80
61591;DHT22;71994;52.410;-1.966;2023-11-19T13:46:11;16.90;57.80
61591;DHT22;71994;52.410;-1.966;2023-11-19T13:49:20;16.90;57.90
61591;DHT22;71994;52.410;-1.966;2023-11-19T13:52:27;16.80;57.90
61591;DHT22;71994;52.410;-1.966;2023-11-19T13:55:33;16.80;58.00
61591;DHT22;71994;52.410;-1.966;2023-11-19T13:58:39;16.80;58.00
61591;DHT22;71994;52.410;-1.966;2023-11-19T14:01:46;16.80;58.00
61591;DHT22;71994;52.410;-1.966;2023-11-19T14:04:55;16.80;58.10
61591;DHT22;71994;52.410;-1.966;2023-11-19T14:08:01;16.80;58.10
61591;DHT22;71994;52.410;-1.966;2023-11-19T14:11:14;16.80;58.20
61591;DHT22;71994;52.410;-1.966;2023-11-19T14:14:20;16.70;58.20
61591;DHT22;71994;52.410;-1.966;2023-11-19T14:17:27;16.70;58.30
61591;DHT22;71994;52.410;-1.966;2023-11-19T14:20:36;16.70;58.20
61591;DHT22;71994;52.410;-1.966;2023-11-19T14:23:42;16.70;58.30
61591;DHT22;71994;52.410;-1.966;2023-11-19T14:26:48;16.70;58.40
61591;DHT22;71994;52.410;-1.966;2023-11-19T14:29:55;16.70;58.40
61591;DHT22;71994;52.410;-1.966;2023-11-19T14:33:03;16.70;58.30
61591;DHT22;71994;52.410;-1.966;2023-11-19T14:36:15;16.70;58.10
61591;DHT22;71994;52.410;-1.966;2023-11-19T14:39:21;16.70;58.20
61591;DHT22;71994;52.410;-1.966;2023-11-19T14:42:27;16.70;58.30
61591;DHT22;71994;52.410;-1.966;2023-11-19T14:45:33;16.70;58.20
61591;DHT22;71994;52.410;-1.966;2023-11-19T14:48:39;16.70;58.20
61591;DHT22;71994;52.410;-1.966;2023-11-19T14:51:48;16.70;58.20
61591;DHT22;71994;52.410;-1.966;2023-11-19T14:54:55;16.70;58.20
61591;DHT22;71994;52.410;-1.966;2023-11-19T14:58:04;16.80;58.20
61591;DHT22;71994;52.410;-1.966;2023-11-19T15:01:12;16.80;58.10
61591;DHT22;71994;52.410;-1.966;2023-11-19T15:04:18;16.80;58.10
61591;DHT22;71994;52.410;-1.966;2023-11-19T15:07:27;16.90;58.00
61591;DHT22;71994;52.410;-1.966;2023-11-19T15:10:33;16.90;57.90
61591;DHT22;71994;52.410;-1.966;2023-11-19T15:13:43;17.00;57.70
61591;DHT22;71994;52.410;-1.966;2023-11-19T15:16:49;17.10;57.60
61591;DHT22;71994;52.410;-1.966;2023-11-19T15:19:56;17.10;57.50
61591;DHT22;71994;52.410;-1.966;2023-11-19T15:23:05;17.10;57.40
61591;DHT22;71994;52.410;-1.966;2023-11-19T15:26:12;17.10;57.40
61591;DHT22;71994;52.410;-1.966;2023-11-19T15:29:19;17.20;57.40
61591;DHT22;71994;52.410;-1.966;2023-11-19T15:32:28;17.20;57.40
61591;DHT22;71994;52.410;-1.966;2023-11-19T15:35:35;17.20;57.40
61591;DHT22;71994;52.410;-1.966;2023-11-19T15:38:48;17.20;57.40
61591;DHT22;71994;52.410;-1.966;2023-11-19T15:41:54;17.20;57.40
61591;DHT22;71994;52.410;-1.966;2023-11-19T15:45:03;17.20;57.50
61591;DHT22;71994;52.410;-1.966;2023-11-19T15:48:10;17.20;57.50
61591;DHT22;71994;52.410;-1.966;2023-11-19T15:51:16;17.20;57.60
61591;DHT22;71994;52.410;-1.966;2023-11-19T15:54:29;17.20;57.50
61591;DHT22;71994;52.410;-1.966;2023-11-19T15:57:35;17.20;57.50
61591;DHT22;71994;52.410;-1.966;2023-11-19T16:00:44;17.20;57.50
61591;DHT22;71994;52.410;-1.966;2023-11-19T16:03:54;17.10;57.60
61591;DHT22;71994;52.410;-1.966;2023-11-19T16:07:00;17.10;57.70
61591;DHT22;71994;52.410;-1.966;2023-11-19T16:10:10;17.10;57.70
61591;DHT22;71994;52.410;-1.966;2023-11-19T16:13:17;17.10;57.70
61591;DHT22;71994;52.410;-1.966;2023-11-19T16:16:24;17.10;57.70
61591;DHT22;71994;52.410;-1.966;2023-11-19T16:19:37;17.10;57.70
61591;DHT22;71994;52.410;-1.966;2023-11-19T16:22:44;17.10;57.70
61591;DHT22;71994;52.410;-1.966;2023-11-19T16:25:55;17.10;57.70
61591;DHT22;71994;52.410;-1.966;2023-11-19T16:29:01;17.00;57.80
61591;DHT22;71994;52.410;-1.966;2023-11-19T16:32:08;17.00;57.80
61591;DHT22;71994;52.410;-1.966;2023-11-19T16:35:15;17.00;57.80
61591;DHT22;71994;52.410;-1.966;2023-11-19T16:38:21;16.90;57.80
61591;DHT22;71994;52.410;-1.966;2023-11-19T16:41:32;17.00;57.90
61591;DHT22;71994;52.410;-1.966;2023-11-19T16:44:39;17.00;57.90
61591;DHT22;71994;52.410;-1.966;2023-11-19T16:47:46;16.90;57.80
61591;DHT22;71994;52.410;-1.966;2023-11-19T16:50:53;16.90;57.90
61591;DHT22;71994;52.410;-1.966;2023-11-19T16:53:59;16.80;58.00
61591;DHT22;71994;52.410;-1.966;2023-11-19T16:57:10;16.80;58.00
61591;DHT22;71994;52.410;-1.966;2023-11-19T17:00:17;16.80;58.00
61591;DHT22;71994;52.410;-1.966;2023-11-19T17:03:24;16.80;58.00
61591;DHT22;71994;52.410;-1.966;2023-11-19T17:06:36;16.80;58.20
61591;DHT22;71994;52.410;-1.966;2023-11-19T17:09:43;16.80;58.20
61591;DHT22;71994;52.410;-1.966;2023-11-19T17:12:53;16.70;58.20
61591;DHT22;71994;52.410;-1.966;2023-11-19T17:15:59;16.70;58.20
61591;DHT22;71994;52.410;-1.966;2023-11-19T17:19:07;16.70;58.30
61591;DHT22;71994;52.410;-1.966;2023-11-19T17:22:13;16.70;58.30
61591;DHT22;71994;52.410;-1.966;2023-11-19T17:25:22;16.70;58.20
61591;DHT22;71994;52.410;-1.966;2023-11-19T17:28:35;16.70;58.20
61591;DHT22;71994;52.410;-1.966;2023-11-19T17:31:41;16.70;58.20
61591;DHT22;71994;52.410;-1.966;2023-11-19T17:34:47;16.70;58.20
61591;DHT22;71994;52.410;-1.966;2023-11-19T17:37:53;16.70;58.20
61591;DHT22;71994;52.410;-1.966;2023-11-19T17:41:00;16.70;58.10
61591;DHT22;71994;52.410;-1.966;2023-11-19T17:44:09;16.70;58.10
61591;DHT22;71994;52.410;-1.966;2023-11-19T17:47:16;16.70;58.20
61591;DHT22;71994;52.410;-1.966;2023-11-19T17:50:23;16.70;58.10
61591;DHT22;71994;52.410;-1.966;2023-11-19T17:53:32;16.80;58.10
61591;DHT22;71994;52.410;-1.966;2023-11-19T17:56:39;16.80;58.00
61591;DHT22;71994;52.410;-1.966;2023-11-19T17:59:48;16.90;57.90
61591;DHT22;71994;52.410;-1.966;2023-11-19T18:02:55;17.00;57.90
61591;DHT22;71994;52.410;-1.966;2023-11-19T18:06:02;17.00;57.80
61591;DHT22;71994;52.410;-1.966;2023-11-19T18:09:08;17.10;57.60
61591;DHT22;71994;52.410;-1.966;2023-11-19T18:12:18;17.10;57.40
61591;DHT22;71994;52.410;-1.966;2023-11-19T18:15:27;17.20;57.30
61591;DHT22;71994;52.410;-1.966;2023-11-19T18:18:34;17.40;57.30
61591;DHT22;71994;52.410;-1.966;2023-11-19T18:21:41;17.50;57.00
61591;DHT22;71994;52.410;-1.966;2023-11-19T18:24:48;17.70;56.70
61591;DHT22;71994;52.410;-1.966;2023-11-19T18:27:54;17.80;56.50
61591;DHT22;71994;52.410;-1.966;2023-11-19T18:31:04;17.90;56.20
61591;DHT22;71994;52.410;-1.966;2023-11-19T18:34:14;18.10;55.90
61591;DHT22;71994;52.410;-1.966;2023-11-19T18:37:20;18.20;55.60
61591;DHT22;71994;52.410;-1.966;2023-11-19T18:40:27;18.30;55.40
61591;DHT22;71994;52.410;-1.966;2023-11-19T18:43:36;18.30;55.30
61591;DHT22;71994;52.410;-1.966;2023-11-19T18:46:47;18.40;55.20
61591;DHT22;71994;52.410;-1.966;2023-11-19T18:49:56;18.50;55.10
61591;DHT22;71994;52.410;-1.966;2023-11-19T18:53:06;18.40;55.10
61591;DHT22;71994;52.410;-1.966;2023-11-19T18:56:13;18.40;55.20
61591;DHT22;71994;52.410;-1.966;2023-11-19T18:59:20;18.30;55.20
61591;DHT22;71994;52.410;-1.966;2023-11-19T19:02:31;18.30;55.30
61591;DHT22;71994;52.410;-1.966;2023-11-19T19:05:38;18.30;55.30
61591;DHT22;71994;52.410;-1.966;2023-11-19T19:08:45;18.30;55.40
61591;DHT22;71994;52.410;-1.966;2023-11-19T19:11:54;18.20;55.40
61591;DHT22;71994;52.410;-1.966;2023-11-19T19:15:04;18.20;55.50
61591;DHT22;71994;52.410;-1.966;2023-11-19T19:18:17;18.10;55.60
61591;DHT22;71994;52.410;-1.966;2023-11-19T19:21:23;18.10;55.70
61591;DHT22;71994;52.410;-1.966;2023-11-19T19:24:30;18.00;55.80
61591;DHT22;71994;52.410;-1.966;2023-11-19T19:27:37;18.00;56.00
61591;DHT22;71994;52.410;-1.966;2023-11-19T19:30:43;17.90;56.00
61591;DHT22;71994;52.410;-1.966;2023-11-19T19:33:54;17.90;56.10
61591;DHT22;71994;52.410;-1.966;2023-11-19T19:37:01;17.90;56.10